Time;durP1;ratioP1;P1;durP2;ratioP2;P2;SDS_P1;SDS_P2;PMS_P1;PMS_P2;Temp;Humidity;BMP_temperature;BMP_pressure;BME280_temperature;BME280_humidity;BME280_pressure;Samples;Min_cycle;Max_cycle;Signal;HPM_P1;HPM_P2
2021/09/17 00:01:44;;;;;;;8.55;6.53;;;15.50;99.90;;;;;;6168499;23;20531;-84
2021/09/17 00:04:11;;;;;;;9.13;6.38;;;15.60;99.90;;;;;;6168516;23;20203;-86
2021/09/17 00:06:38;;;;;;;9.73;6.80;;;15.60;99.90;;;;;;6171501;23;20244;-85
2021/09/17 00:09:07;;;;;;;8.10;6.38;;;15.60;99.90;;;;;;6172113;23;20177;-85
2021/09/17 00:11:34;;;;;;;7.72;5.90;;;15.60;99.90;;;;;;6172255;23;20233;-84
2021/09/17 00:14:01;;;;;;;8.75;7.82;;;15.60;99.90;;;;;;6173797;23;20285;-84
2021/09/17 00:19:09;;;;;;;8.32;6.90;;;15.60;99.90;;;;;;6176899;23;20200;-85
2021/09/17 00:21:36;;;;;;;10.13;7.57;;;15.60;99.90;;;;;;6174955;23;20204;-85
2021/09/17 00:24:04;;;;;;;11.15;6.55;;;15.60;99.90;;;;;;6175042;23;20197;-85
2021/09/17 00:26:33;;;;;;;12.32;6.75;;;15.60;99.90;;;;;;6172011;23;20174;-85
2021/09/17 00:29:00;;;;;;;8.48;6.95;;;15.70;99.90;;;;;;6171991;23;20251;-84
2021/09/17 00:31:27;;;;;;;11.13;7.18;;;15.70;99.90;;;;;;6170722;23;20234;-82
2021/09/17 00:33:55;;;;;;;9.68;7.95;;;15.70;99.90;;;;;;6171146;23;20194;-86
2021/09/17 00:36:22;;;;;;;8.30;7.05;;;15.70;99.90;;;;;;6170532;23;20228;-85
2021/09/17 00:38:49;;;;;;;8.43;7.05;;;15.70;99.90;;;;;;6170396;23;20177;-86
2021/09/17 00:41:17;;;;;;;10.27;8.10;;;15.70;99.90;;;;;;6171219;23;20597;-83
2021/09/17 00:43:45;;;;;;;10.35;9.00;;;15.70;99.90;;;;;;6170461;23;20208;-82
2021/09/17 00:46:12;;;;;;;12.05;10.02;;;15.70;99.90;;;;;;6171956;23;20197;-85
2021/09/17 00:48:39;;;;;;;13.75;9.18;;;15.60;99.90;;;;;;6170750;23;20241;-86
2021/09/17 00:51:07;;;;;;;12.35;9.80;;;15.70;99.90;;;;;;6172024;23;20213;-85
2021/09/17 00:53:35;;;;;;;11.93;8.45;;;15.70;99.90;;;;;;6175210;23;20197;-81
2021/09/17 00:56:03;;;;;;;9.38;8.30;;;15.60;99.90;;;;;;6183063;23;20157;-80
2021/09/17 00:58:31;;;;;;;11.80;9.98;;;15.70;99.90;;;;;;6183265;23;20165;-80
2021/09/17 01:00:59;;;;;;;11.88;8.90;;;15.60;99.90;;;;;;6183497;23;20166;-81
2021/09/17 01:03:29;;;;;;;9.40;8.00;;;15.60;99.90;;;;;;6183516;23;20177;-78
2021/09/17 01:05:56;;;;;;;13.95;11.00;;;15.60;99.90;;;;;;6183181;23;20157;-80
2021/09/17 01:08:23;;;;;;;12.07;8.75;;;15.60;99.90;;;;;;6183727;23;20154;-78
2021/09/17 02:31:13;;;;;;;23.65;16.40;;;14.90;99.90;;;;;;6125484;23;20498;-77
2021/09/17 02:33:40;;;;;;;20.55;15.82;;;14.90;99.90;;;;;;6097859;23;20170;-77
2021/09/17 02:36:07;;;;;;;23.27;17.90;;;14.90;99.90;;;;;;6096897;23;20159;-79
2021/09/17 02:38:35;;;;;;;29.38;17.65;;;14.90;99.90;;;;;;6097688;23;20233;-79
2021/09/17 02:41:02;;;;;;;20.00;16.35;;;15.00;99.90;;;;;;6096793;23;20163;-78
2021/09/17 02:43:29;;;;;;;21.00;17.15;;;15.00;99.90;;;;;;6097188;23;20481;-78
2021/09/17 02:45:58;;;;;;;20.98;17.77;;;15.00;99.90;;;;;;6071109;23;20606;-78
2021/09/17 02:48:27;;;;;;;23.83;18.48;;;15.10;99.90;;;;;;6097871;23;20481;-79
2021/09/17 02:50:55;;;;;;;18.55;15.48;;;15.20;99.90;;;;;;6097493;23;20158;-79
2021/09/17 02:53:22;;;;;;;18.23;14.95;;;15.20;99.90;;;;;;6097483;23;20541;-78
2021/09/17 02:55:49;;;;;;;19.83;15.95;;;15.20;99.90;;;;;;6100089;23;20162;-78
2021/09/17 02:58:17;;;;;;;23.05;17.10;;;15.20;99.90;;;;;;6103921;23;20574;-79
2021/09/17 03:00:44;;;;;;;18.20;15.65;;;15.20;99.90;;;;;;6097811;23;20170;-78
2021/09/17 03:03:12;;;;;;;21.38;15.60;;;15.30;99.90;;;;;;6097426;23;20218;-78
2021/09/17 03:05:40;;;;;;;19.45;17.10;;;15.30;99.90;;;;;;6096910;23;20230;-78
2021/09/17 03:08:08;;;;;;;19.90;15.75;;;15.30;99.90;;;;;;6098047;23;20162;-79
2021/09/17 03:10:35;;;;;;;17.17;15.25;;;15.30;99.90;;;;;;6097313;23;20566;-79
2021/09/17 03:13:02;;;;;;;17.85;15.77;;;15.40;99.90;;;;;;6097592;23;20194;-77
2021/09/17 03:15:30;;;;;;;26.35;17.67;;;15.40;99.90;;;;;;6096385;23;20158;-78
2021/09/17 03:17:57;;;;;;;17.52;15.63;;;15.30;99.90;;;;;;6097173;23;20162;-76
2021/09/17 03:20:24;;;;;;;18.63;15.23;;;15.30;99.90;;;;;;6096972;23;20165;-78
2021/09/17 03:22:53;;;;;;;22.15;15.23;;;15.30;99.90;;;;;;6096742;23;20280;-78
2021/09/17 03:25:20;;;;;;;17.65;15.75;;;15.30;99.90;;;;;;6096355;23;20170;-77
2021/09/17 03:27:47;;;;;;;18.67;16.60;;;15.30;99.90;;;;;;6097225;23;20163;-77
2021/09/17 03:30:14;;;;;;;18.17;14.05;;;15.20;99.90;;;;;;6097677;23;20163;-77
2021/09/17 03:32:41;;;;;;;18.70;13.85;;;15.20;99.90;;;;;;6097114;23;20225;-77
2021/09/17 03:35:09;;;;;;;15.07;13.32;;;15.30;99.90;;;;;;6096465;23;20242;-77
2021/09/17 03:37:36;;;;;;;16.25;13.95;;;15.30;99.90;;;;;;6098881;23;20162;-76
2021/09/17 03:40:06;;;;;;;22.80;12.70;;;15.20;99.90;;;;;;6102723;23;20159;-78
2021/09/17 03:42:33;;;;;;;15.50;13.93;;;15.30;99.90;;;;;;6099066;23;20202;-77
2021/09/17 03:45:01;;;;;;;17.25;14.07;;;15.30;99.90;;;;;;6098117;23;20169;-79
2021/09/17 03:47:28;;;;;;;20.35;12.75;;;15.20;99.90;;;;;;6098914;23;20155;-79
2021/09/17 03:49:55;;;;;;;15.85;14.20;;;15.10;99.90;;;;;;6098821;23;20163;-77
2021/09/17 03:52:22;;;;;;;19.05;15.88;;;15.00;99.90;;;;;;6098899;23;20237;-77
2021/09/17 03:54:49;;;;;;;17.13;14.00;;;15.00;99.90;;;;;;6099063;23;20169;-77
2021/09/17 03:57:18;;;;;;;23.90;15.68;;;15.00;99.90;;;;;;6099616;23;20159;-77
2021/09/17 03:59:45;;;;;;;17.27;15.32;;;14.90;99.90;;;;;;6103305;23;20158;-76
2021/09/17 04:02:12;;;;;;;20.15;16.90;;;14.80;99.90;;;;;;6110328;23;20309;-77
2021/09/17 04:04:40;;;;;;;20.48;16.55;;;14.80;99.90;;;;;;6105988;23;20162;-78
2021/09/17 04:07:11;;;;;;;27.65;19.55;;;14.80;99.90;;;;;;6099946;23;20155;-78
2021/09/17 04:09:38;;;;;;;28.00;18.15;;;14.70;99.90;;;;;;6099204;23;20162;-78
2021/09/17 04:12:06;;;;;;;22.15;17.75;;;14.70;99.90;;;;;;6098567;23;20190;-77
2021/09/17 04:14:35;;;;;;;22.52;17.00;;;14.70;99.90;;;;;;6099188;23;20159;-77
2021/09/17 04:17:02;;;;;;;22.92;16.42;;;14.60;99.90;;;;;;6101082;23;20170;-77
2021/09/17 04:19:29;;;;;;;23.52;17.83;;;14.60;99.90;;;;;;6109827;23;20173;-78
2021/09/17 04:21:58;;;;;;;21.67;16.35;;;14.60;99.90;;;;;;6098414;23;20198;-78
2021/09/17 04:24:25;;;;;;;27.33;17.08;;;14.60;99.90;;;;;;6098745;23;20582;-77
2021/09/17 04:26:52;;;;;;;19.70;14.40;;;14.60;99.90;;;;;;6098476;23;20163;-78
2021/09/17 04:29:19;;;;;;;22.20;16.02;;;14.50;99.90;;;;;;6098342;23;20169;-78
2021/09/17 04:31:48;;;;;;;23.27;16.02;;;14.50;99.90;;;;;;6098444;23;20202;-77
2021/09/17 04:34:16;;;;;;;20.08;14.88;;;14.50;99.90;;;;;;6099276;23;20237;-77
2021/09/17 04:36:43;;;;;;;21.20;16.83;;;14.50;99.90;;;;;;6106625;23;20524;-76
2021/09/17 04:39:11;;;;;;;20.58;14.95;;;14.40;99.90;;;;;;6098654;23;20159;-75
2021/09/17 04:41:39;;;;;;;19.60;16.10;;;14.50;99.90;;;;;;6097920;23;20198;-75
2021/09/17 04:44:06;;;;;;;19.63;14.63;;;14.40;99.90;;;;;;6098091;23;20193;-77
2021/09/17 04:46:33;;;;;;;20.05;15.07;;;14.40;99.90;;;;;;6097091;23;20169;-77
2021/09/17 04:49:02;;;;;;;23.77;16.20;;;14.40;99.90;;;;;;6098968;23;20481;-77
2021/09/17 04:51:30;;;;;;;22.00;16.38;;;14.40;99.90;;;;;;6098112;23;20288;-78
2021/09/17 04:53:57;;;;;;;17.88;14.90;;;14.40;99.90;;;;;;6097615;23;20178;-77
2021/09/17 04:56:25;;;;;;;22.40;14.90;;;14.40;99.90;;;;;;6097915;23;20166;-75
2021/09/17 04:58:52;;;;;;;16.58;12.85;;;14.20;99.90;;;;;;6098096;23;20231;-75
2021/09/17 05:01:19;;;;;;;24.88;15.00;;;14.40;99.90;;;;;;6097956;23;20272;-76
2021/09/17 05:03:47;;;;;;;22.13;14.93;;;14.50;99.90;;;;;;6098292;23;20189;-75
2021/09/17 05:06:15;;;;;;;20.67;14.45;;;14.40;99.90;;;;;;6097188;23;20213;-76
2021/09/17 05:08:43;;;;;;;17.42;13.73;;;14.40;99.90;;;;;;6098527;23;20162;-77
2021/09/17 05:11:11;;;;;;;16.77;13.55;;;14.40;99.90;;;;;;6097762;23;20162;-76
2021/09/17 05:13:39;;;;;;;16.92;13.10;;;14.40;99.90;;;;;;6135495;23;20207;-81
2021/09/17 05:16:06;;;;;;;13.15;11.85;;;14.40;99.90;;;;;;6211855;23;20165;-82
2021/09/17 05:18:33;;;;;;;19.67;13.10;;;14.50;99.90;;;;;;6211017;23;20193;-83
2021/09/17 05:21:00;;;;;;;22.10;13.75;;;14.50;99.90;;;;;;6206234;23;20639;-82
2021/09/17 05:23:29;;;;;;;13.40;12.00;;;14.50;99.90;;;;;;6206379;23;20212;-81
2021/09/17 05:32:24;;;;;;;14.27;11.18;;;14.70;99.90;;;;;;6127369;23;20276;-77
2021/09/17 05:34:51;;;;;;;24.13;11.77;;;14.90;99.90;;;;;;6127043;23;20566;-80
2021/09/17 05:37:19;;;;;;;21.85;12.65;;;15.00;99.90;;;;;;6127808;23;20527;-78
2021/09/17 05:39:47;;;;;;;14.15;11.93;;;15.00;99.90;;;;;;6127837;23;20200;-80
2021/09/17 05:42:14;;;;;;;15.38;11.07;;;15.10;99.90;;;;;;6127077;23;20686;-80
2021/09/17 05:44:41;;;;;;;13.60;10.30;;;15.10;99.90;;;;;;6126786;23;20180;-78
2021/09/17 05:47:09;;;;;;;14.00;10.93;;;15.20;99.90;;;;;;6126572;23;20169;-79
2021/09/17 05:49:36;;;;;;;15.10;10.50;;;15.30;99.90;;;;;;6127433;23;20158;-80
2021/09/17 05:52:04;;;;;;;11.20;9.55;;;15.40;99.90;;;;;;6134444;23;20198;-77
2021/09/17 05:54:32;;;;;;;10.90;9.90;;;15.50;99.90;;;;;;6130880;23;20159;-78
2021/09/17 05:57:01;;;;;;;12.77;10.35;;;15.60;99.90;;;;;;6126561;23;20491;-78
2021/09/17 05:59:28;;;;;;;11.90;9.25;;;15.70;99.90;;;;;;6127268;23;20173;-78
2021/09/17 06:01:55;;;;;;;15.73;10.00;;;15.80;99.90;;;;;;6126835;23;20201;-78
2021/09/17 06:04:22;;;;;;;14.52;8.88;;;15.80;99.90;;;;;;6126225;23;20505;-76
2021/09/17 06:06:49;;;;;;;10.13;9.13;;;15.80;99.90;;;;;;6126473;23;20165;-75
2021/09/17 06:09:17;;;;;;;13.18;10.50;;;15.80;99.90;;;;;;6127252;23;20190;-76
2021/09/17 06:11:44;;;;;;;15.75;9.88;;;15.80;99.90;;;;;;6126014;23;20194;-77
2021/09/17 06:14:12;;;;;;;10.18;9.02;;;15.80;99.90;;;;;;6126796;23;20155;-76
2021/09/17 06:16:40;;;;;;;16.25;11.18;;;15.60;99.90;;;;;;6125758;23;20189;-78
2021/09/17 06:19:08;;;;;;;13.38;9.40;;;15.90;99.90;;;;;;6127415;23;20239;-75
2021/09/17 06:21:35;;;;;;;17.13;10.38;;;15.90;99.90;;;;;;6126336;23;20239;-77
2021/09/17 06:24:03;;;;;;;10.75;8.02;;;16.00;99.90;;;;;;6127398;23;20187;-77
2021/09/17 06:26:31;;;;;;;9.35;8.45;;;16.10;99.90;;;;;;6131647;23;20166;-79
2021/09/17 06:28:59;;;;;;;10.88;7.18;;;16.30;99.90;;;;;;6131246;23;20180;-78
2021/09/17 06:31:28;;;;;;;10.03;7.50;;;17.40;99.90;;;;;;6132515;23;20255;-78
2021/09/17 06:33:56;;;;;;;11.10;6.50;;;18.80;99.90;;;;;;6127946;23;20386;-79
2021/09/17 06:36:23;;;;;;;8.30;6.40;;;20.00;99.90;;;;;;6125813;23;20399;-78
2021/09/17 06:38:50;;;;;;;8.47;6.47;;;20.40;99.90;;;;;;6125956;23;20764;-78
2021/09/17 06:41:18;;;;;;;9.93;6.77;;;20.60;99.90;;;;;;6127251;23;20739;-79
2021/09/17 06:43:46;;;;;;;6.70;5.60;;;21.20;99.90;;;;;;6126425;23;20435;-79
2021/09/17 06:46:13;;;;;;;13.60;7.87;;;22.00;99.90;;;;;;6126461;23;20865;-79
2021/09/17 06:48:42;;;;;;;11.27;5.20;;;22.70;99.90;;;;;;6126150;23;20374;-78
2021/09/17 06:51:09;;;;;;;13.73;7.17;;;22.70;99.90;;;;;;6124435;23;20392;-78
2021/09/17 06:53:36;;;;;;;9.70;7.00;;;22.50;99.90;;;;;;6125794;23;20408;-79
2021/09/17 06:56:05;;;;;;;7.73;5.67;;;22.30;99.90;;;;;;6116389;23;21081;-76
2021/09/17 06:58:32;;;;;;;15.10;6.47;;;22.10;99.90;;;;;;6122425;23;20419;-76
2021/09/17 07:01:01;;;;;;;9.80;5.80;;;21.80;99.90;;;;;;6124985;23;20456;-74
2021/09/17 07:03:28;;;;;;;8.70;6.67;;;22.60;99.90;;;;;;6125932;23;20426;-76
2021/09/17 07:05:57;;;;;;;8.57;4.60;;;23.80;99.90;;;;;;6123866;23;20386;-77
2021/09/17 07:08:24;;;;;;;7.23;4.97;;;24.50;99.70;;;;;;6125858;23;20391;-74
2021/09/17 07:10:52;;;;;;;4.83;4.40;;;24.10;99.20;;;;;;6128625;23;20390;-79
2021/09/17 07:13:20;;;;;;;7.70;5.43;;;23.30;99.90;;;;;;6127911;23;20473;-76
2021/09/17 07:15:47;;;;;;;7.20;5.40;;;22.60;99.90;;;;;;6126775;23;20391;-74
2021/09/17 07:18:14;;;;;;;6.80;4.80;;;21.70;99.90;;;;;;6127316;23;20392;-75
2021/09/17 07:20:42;;;;;;;7.27;6.47;;;20.90;99.90;;;;;;6127486;23;20404;-75
2021/09/17 07:23:12;;;;;;;11.50;6.83;;;20.30;99.90;;;;;;6128579;23;20445;-76
2021/09/17 07:25:39;;;;;;;10.83;7.60;;;19.70;99.90;;;;;;6127111;23;20449;-76
2021/09/17 07:28:06;;;;;;;9.03;7.70;;;19.20;99.90;;;;;;6127882;23;20394;-75
2021/09/17 07:30:34;;;;;;;6.93;6.10;;;18.80;99.90;;;;;;6126803;23;20449;-78
2021/09/17 07:33:02;;;;;;;10.53;7.00;;;18.40;99.90;;;;;;6126109;23;20428;-78
2021/09/17 07:35:30;;;;;;;9.63;6.10;;;18.20;99.90;;;;;;6102193;23;20405;-77
2021/09/17 07:37:59;;;;;;;7.83;6.13;;;18.20;99.90;;;;;;6128858;23;20859;-77
2021/09/17 07:40:29;;;;;;;7.57;4.73;;;18.10;99.90;;;;;;6128200;23;20397;-79
2021/09/17 07:42:56;;;;;;;9.83;5.30;;;18.30;99.90;;;;;;6128593;23;20459;-76
2021/09/17 07:45:24;;;;;;;7.40;5.73;;;18.60;99.90;;;;;;6126767;23;20397;-77
2021/09/17 07:47:52;;;;;;;12.27;5.00;;;18.80;99.90;;;;;;6127407;23;20836;-78
2021/09/17 07:50:19;;;;;;;11.87;5.23;;;18.90;99.90;;;;;;6129028;23;20449;-79
2021/09/17 07:52:46;;;;;;;13.60;5.17;;;18.90;99.90;;;;;;6129133;23;20425;-78
2021/09/17 07:55:14;;;;;;;8.10;5.13;;;18.80;99.90;;;;;;6128564;23;21220;-79
2021/09/17 07:57:44;;;;;;;8.77;6.13;;;18.80;99.90;;;;;;6102342;23;20390;-78
2021/09/17 08:00:14;;;;;;;8.93;4.80;;;18.70;99.90;;;;;;6127754;23;20420;-78
2021/09/17 08:02:43;;;;;;;7.50;5.03;;;19.00;99.90;;;;;;6127741;23;20429;-78
2021/09/17 08:05:10;;;;;;;5.70;4.47;;;19.20;99.90;;;;;;6128319;23;20382;-79
2021/09/17 08:07:38;;;;;;;8.30;5.00;;;19.60;99.90;;;;;;6128214;23;20449;-80
2021/09/17 08:10:07;;;;;;;10.00;7.33;;;21.00;99.90;;;;;;6127489;23;20495;-75
2021/09/17 08:12:34;;;;;;;8.23;6.50;;;21.90;99.90;;;;;;6128588;23;20794;-78
2021/09/17 08:15:04;;;;;;;12.10;6.13;;;21.80;99.90;;;;;;6127535;23;20683;-79
2021/09/17 08:17:31;;;;;;;11.90;8.00;;;21.60;99.90;;;;;;6127817;23;20394;-77
2021/09/17 08:19:59;;;;;;;9.13;6.10;;;21.60;99.90;;;;;;6135551;23;20392;-78
2021/09/17 08:22:26;;;;;;;10.27;7.17;;;21.60;99.90;;;;;;6135820;23;20431;-79
2021/09/17 08:24:54;;;;;;;16.10;8.83;;;21.60;99.90;;;;;;6139536;23;20435;-78
2021/09/17 08:27:21;;;;;;;12.33;8.00;;;21.10;99.90;;;;;;6136583;23;20399;-79
2021/09/17 08:29:48;;;;;;;15.20;7.00;;;20.70;99.90;;;;;;6128818;23;20690;-81
2021/09/17 08:32:17;;;;;;;11.30;7.43;;;20.40;99.90;;;;;;6127680;23;20917;-80
2021/09/17 08:34:44;;;;;;;12.00;6.20;;;20.10;99.90;;;;;;6127714;23;20388;-79
2021/09/17 08:37:11;;;;;;;12.67;6.30;;;20.00;99.90;;;;;;6127520;23;20394;-78
2021/09/17 08:39:39;;;;;;;7.67;4.60;;;19.90;99.90;;;;;;6127318;23;20959;-80
2021/09/17 08:42:09;;;;;;;7.30;4.60;;;19.70;99.90;;;;;;6128201;23;20432;-79
2021/09/17 08:44:36;;;;;;;6.93;4.20;;;19.60;99.90;;;;;;6128036;23;20417;-80
2021/09/17 08:47:05;;;;;;;7.57;4.20;;;19.40;99.90;;;;;;6128308;23;20391;-80
2021/09/17 08:49:39;;;;;;;5.53;2.90;;;19.40;99.90;;;;;;6128199;23;20394;-77
2021/09/17 08:52:07;;;;;;;4.30;2.30;;;19.40;99.90;;;;;;6127795;23;20436;-81
2021/09/17 08:54:35;;;;;;;3.13;1.90;;;19.60;99.90;;;;;;6128495;23;20419;-81
2021/09/17 08:57:02;;;;;;;3.50;2.57;;;19.70;99.90;;;;;;6127929;23;20413;-80
2021/09/17 08:59:29;;;;;;;5.03;1.93;;;19.80;99.90;;;;;;6129573;23;20413;-80
2021/09/17 09:01:57;;;;;;;4.50;2.00;;;20.00;99.90;;;;;;6128705;23;20432;-78
2021/09/17 09:04:30;;;;;;;2.93;2.13;;;20.30;99.90;;;;;;6134448;23;20427;-75
2021/09/17 09:07:06;;;;;;;7.50;1.90;;;20.50;99.90;;;;;;6131051;23;20442;-78
2021/09/17 09:09:33;;;;;;;7.10;2.20;;;20.70;99.90;;;;;;6129141;23;20386;-80
2021/09/17 09:12:00;;;;;;;3.73;2.43;;;20.70;99.90;;;;;;6127569;23;20716;-78
2021/09/17 09:14:28;;;;;;;8.00;3.23;;;20.50;99.90;;;;;;6128623;23;20423;-78
2021/09/17 09:16:56;;;;;;;11.97;3.90;;;20.30;99.90;;;;;;6128004;23;20381;-79
2021/09/17 09:19:27;;;;;;;7.37;2.60;;;20.10;99.90;;;;;;6128312;23;20453;-81
2021/09/17 09:22:09;;;;;;;11.87;4.20;;;20.00;99.90;;;;;;6127035;23;20885;-77
2021/09/17 09:24:40;;;;;;;5.40;2.67;;;19.80;99.90;;;;;;6127833;23;20429;-76
2021/09/17 09:27:10;;;;;;;5.50;3.57;;;19.60;99.90;;;;;;6128703;23;20468;-77
2021/09/17 09:29:38;;;;;;;3.00;2.30;;;19.60;99.90;;;;;;6128274;23;20389;-82
2021/09/17 09:32:07;;;;;;;2.50;1.60;;;19.40;99.90;;;;;;6127605;23;20429;-79
2021/09/17 09:34:55;;;;;;;6.00;1.87;;;19.20;99.90;;;;;;6128227;23;20389;-77
2021/09/17 09:37:25;;;;;;;6.37;2.50;;;19.00;99.90;;;;;;6127325;23;20392;-78
2021/09/17 09:39:56;;;;;;;10.53;5.60;;;18.90;99.90;;;;;;6128426;23;20430;-79
2021/09/17 09:42:32;;;;;;;11.87;5.70;;;18.90;99.90;;;;;;6128055;23;20797;-77
2021/09/17 09:45:16;;;;;;;15.80;9.57;;;18.90;99.90;;;;;;6127605;23;20468;-79
2021/09/17 09:47:46;;;;;;;20.20;11.13;;;18.80;99.90;;;;;;6133673;23;20886;-76
2021/09/17 09:50:15;;;;;;;14.07;7.13;;;18.70;99.90;;;;;;6129243;23;20492;-78
2021/09/17 09:52:42;;;;;;;8.50;3.53;;;18.80;99.90;;;;;;6127637;23;20421;-77
2021/09/17 09:55:12;;;;;;;9.93;6.43;;;18.80;99.90;;;;;;6127439;23;20691;-79
2021/09/17 09:57:42;;;;;;;6.10;3.70;;;18.90;99.90;;;;;;6128849;23;20390;-76
2021/09/17 10:00:11;;;;;;;10.90;5.50;;;19.00;99.90;;;;;;6129196;23;20390;-78
2021/09/17 10:02:41;;;;;;;6.87;4.10;;;19.20;99.90;;;;;;6128177;23;20712;-77
2021/09/17 10:05:11;;;;;;;8.70;2.23;;;19.40;99.90;;;;;;6127250;23;20509;-78
2021/09/17 10:07:40;;;;;;;13.30;4.33;;;19.60;99.90;;;;;;6128046;23;20721;-77
2021/09/17 10:10:10;;;;;;;9.10;3.73;;;20.00;99.90;;;;;;6129282;23;20477;-78
2021/09/17 10:12:40;;;;;;;10.13;4.73;;;20.30;99.90;;;;;;6128680;23;20483;-76
2021/09/17 10:15:09;;;;;;;4.90;2.10;;;20.70;99.90;;;;;;6127465;23;20388;-79
2021/09/17 10:17:38;;;;;;;5.67;2.50;;;21.20;99.90;;;;;;6138324;23;20474;-76
2021/09/17 10:20:08;;;;;;;8.00;1.33;;;21.50;99.90;;;;;;6136726;23;20488;-76
2021/09/17 10:22:38;;;;;;;4.40;2.53;;;21.60;99.90;;;;;;6136807;23;20465;-77
2021/09/17 10:25:11;;;;;;;2.97;1.30;;;21.50;99.90;;;;;;6135701;23;20753;-79
2021/09/17 10:27:42;;;;;;;4.90;1.30;;;21.40;99.90;;;;;;6105269;23;20973;-76
2021/09/17 10:30:13;;;;;;;3.47;1.63;;;21.20;99.90;;;;;;6131452;23;20412;-78
2021/09/17 10:32:43;;;;;;;5.50;1.93;;;20.90;99.90;;;;;;6127015;23;20470;-80
2021/09/17 10:35:15;;;;;;;3.73;1.63;;;20.70;99.90;;;;;;6127599;23;20698;-77
2021/09/17 10:38:01;;;;;;;5.73;2.53;;;20.60;99.90;;;;;;6127214;23;20389;-76
2021/09/17 10:40:45;;;;;;;1.90;1.30;;;20.60;99.90;;;;;;6127440;23;20390;-78
2021/09/17 10:43:35;;;;;;;4.00;1.33;;;20.40;99.90;;;;;;6126971;23;20453;-77
2021/09/17 10:46:04;;;;;;;3.00;1.57;;;20.40;99.90;;;;;;6126873;23;20390;-79
2021/09/17 10:48:55;;;;;;;2.27;0.97;;;20.30;99.90;;;;;;6126831;23;20389;-78
2021/09/17 10:51:30;;;;;;;2.63;1.23;;;20.30;99.90;;;;;;6125954;23;20437;-76
2021/09/17 10:53:59;;;;;;;2.73;1.10;;;20.20;99.90;;;;;;6126772;23;20396;-76
2021/09/17 10:56:26;;;;;;;2.73;1.50;;;20.10;99.90;;;;;;6126060;23;20745;-76
2021/09/17 10:59:14;;;;;;;2.80;1.10;;;19.90;99.90;;;;;;6127359;23;20374;-77
2021/09/17 11:01:52;;;;;;;1.33;0.80;;;20.00;99.90;;;;;;6126633;23;20425;-78
2021/09/17 11:04:38;;;;;;;2.80;1.93;;;20.00;99.90;;;;;;6127406;23;20434;-75
2021/09/17 11:07:32;;;;;;;2.63;0.97;;;20.10;99.90;;;;;;6125703;23;20392;-77
2021/09/17 11:10:01;;;;;;;5.33;1.00;;;20.10;99.90;;;;;;6132072;23;20389;-76
2021/09/17 11:12:30;;;;;;;2.43;1.10;;;20.10;99.90;;;;;;6128128;23;20428;-79
2021/09/17 11:15:09;;;;;;;2.03;1.00;;;20.10;99.90;;;;;;6156072;23;20495;-83
2021/09/17 11:17:38;;;;;;;1.00;0.70;;;20.10;99.90;;;;;;6166646;23;20373;-83
2021/09/17 11:20:07;;;;;;;1.57;1.00;;;20.10;99.90;;;;;;6166850;23;20413;-83
2021/09/17 11:22:57;;;;;;;2.27;0.90;;;20.40;99.90;;;;;;6166679;23;20441;-83
2021/09/17 11:25:31;;;;;;;2.33;1.00;;;20.70;99.90;;;;;;6137373;23;20443;-83
2021/09/17 11:27:59;;;;;;;1.70;1.40;;;21.10;99.90;;;;;;6134093;23;20409;-83
2021/09/17 11:30:29;;;;;;;1.20;0.67;;;21.60;99.90;;;;;;6137081;23;20415;-83
2021/09/17 11:32:57;;;;;;;5.47;1.60;;;21.80;99.90;;;;;;6144051;23;20503;-84
2021/09/17 11:35:24;;;;;;;3.67;0.90;;;21.90;99.90;;;;;;6141773;23;20464;-82
2021/09/17 11:37:54;;;;;;;2.30;1.20;;;22.00;99.90;;;;;;6140284;23;20397;-82
2021/09/17 11:40:22;;;;;;;4.50;2.50;;;22.20;99.90;;;;;;6141209;23;20906;-84
2021/09/17 11:42:49;;;;;;;3.83;1.57;;;22.20;99.90;;;;;;6140279;23;20477;-83
2021/09/17 11:45:23;;;;;;;1.80;0.90;;;22.00;99.90;;;;;;6139872;23;20443;-83
2021/09/17 11:47:53;;;;;;;2.70;1.30;;;21.80;99.90;;;;;;6139622;23;20767;-84
2021/09/17 11:50:25;;;;;;;6.67;2.10;;;21.70;99.90;;;;;;6140916;23;20922;-82
2021/09/17 11:52:54;;;;;;;2.80;2.10;;;21.30;99.90;;;;;;6138902;23;20475;-83
2021/09/17 11:55:23;;;;;;;3.93;1.10;;;21.20;99.90;;;;;;6140454;23;20487;-83
2021/09/17 11:57:52;;;;;;;4.90;1.67;;;21.30;99.90;;;;;;6139480;23;20398;-83
2021/09/17 12:00:20;;;;;;;2.60;0.90;;;21.40;99.90;;;;;;6140839;23;20457;-83
2021/09/17 12:02:51;;;;;;;4.10;1.10;;;21.20;99.90;;;;;;6144116;23;20459;-83
2021/09/17 12:05:20;;;;;;;2.20;1.00;;;21.30;99.90;;;;;;6142402;23;20521;-82
2021/09/17 12:07:50;;;;;;;1.97;1.50;;;21.20;99.90;;;;;;6145369;23;20443;-82
2021/09/17 12:10:21;;;;;;;2.43;0.90;;;21.00;99.90;;;;;;6145538;23;20402;-82
2021/09/17 12:12:49;;;;;;;2.93;1.13;;;20.80;99.90;;;;;;6141298;23;20405;-83
2021/09/17 12:15:26;;;;;;;3.80;1.60;;;20.70;99.90;;;;;;6139989;23;20420;-83
2021/09/17 12:17:57;;;;;;;3.37;1.70;;;20.60;99.90;;;;;;6140164;23;20389;-82
2021/09/17 12:20:38;;;;;;;3.63;1.30;;;20.60;99.90;;;;;;6141789;23;20446;-83
2021/09/17 12:23:06;;;;;;;1.97;1.27;;;20.60;99.90;;;;;;6144307;23;20402;-83
2021/09/17 12:25:33;;;;;;;2.73;1.17;;;20.70;99.90;;;;;;6142250;23;20449;-83
2021/09/17 12:28:02;;;;;;;3.10;1.40;;;20.80;99.90;;;;;;6140193;23;20908;-83
2021/09/17 12:30:32;;;;;;;5.00;1.20;;;20.80;99.90;;;;;;6140108;23;20414;-82
2021/09/17 12:33:10;;;;;;;3.97;1.50;;;20.80;99.90;;;;;;6142295;23;20407;-82
2021/09/17 12:35:38;;;;;;;2.70;1.13;;;20.70;99.90;;;;;;6140953;23;20407;-83
2021/09/17 12:38:08;;;;;;;8.30;4.80;;;20.80;99.90;;;;;;6138269;23;20512;-83
2021/09/17 12:40:38;;;;;;;1.63;1.20;;;21.00;99.90;;;;;;6137981;23;20403;-83
2021/09/17 12:43:07;;;;;;;3.90;0.87;;;21.20;99.90;;;;;;6139326;23;20439;-82
2021/09/17 12:45:37;;;;;;;12.40;1.40;;;21.40;99.90;;;;;;6142303;23;20452;-83
2021/09/17 12:48:05;;;;;;;1.40;0.83;;;21.30;99.90;;;;;;6141962;23;20400;-82
2021/09/17 12:50:37;;;;;;;4.40;1.57;;;21.30;99.90;;;;;;6144708;23;20427;-83
2021/09/17 12:53:10;;;;;;;1.30;0.90;;;21.20;99.90;;;;;;6153228;23;20396;-83
2021/09/17 12:55:39;;;;;;;2.10;1.10;;;21.20;99.90;;;;;;6143320;23;20402;-82
2021/09/17 12:58:08;;;;;;;2.23;0.80;;;21.00;99.90;;;;;;6138273;23;20399;-82
2021/09/17 13:00:41;;;;;;;2.43;1.03;;;21.00;99.90;;;;;;6145383;23;20408;-84
2021/09/17 13:03:11;;;;;;;2.43;0.83;;;21.00;99.90;;;;;;6149077;23;20872;-83
2021/09/17 13:05:41;;;;;;;2.20;1.33;;;21.10;99.90;;;;;;6138522;23;20438;-82
2021/09/17 13:08:09;;;;;;;1.23;0.67;;;21.00;99.90;;;;;;6139800;23;20391;-80
2021/09/17 13:10:38;;;;;;;3.17;0.90;;;20.90;99.90;;;;;;6137187;23;20411;-83
2021/09/17 13:13:06;;;;;;;2.30;1.10;;;20.80;99.90;;;;;;6138649;23;20440;-82
2021/09/17 13:15:33;;;;;;;5.17;1.27;;;20.80;99.90;;;;;;6141440;23;20410;-83
2021/09/17 13:18:01;;;;;;;1.63;1.13;;;20.80;99.90;;;;;;6140371;23;20901;-83
2021/09/17 13:20:29;;;;;;;2.70;1.07;;;20.60;99.90;;;;;;6139919;23;20410;-83
2021/09/17 13:22:58;;;;;;;2.50;0.90;;;20.50;99.90;;;;;;6135023;23;20421;-82
2021/09/17 13:25:49;;;;;;;2.20;1.20;;;20.40;99.90;;;;;;6136929;23;20460;-86
2021/09/17 13:28:16;;;;;;;2.23;1.10;;;20.30;99.90;;;;;;6131409;23;20427;-83
2021/09/17 13:30:44;;;;;;;1.73;0.87;;;20.30;99.90;;;;;;6141701;23;20457;-83
2021/09/17 13:33:12;;;;;;;1.40;0.80;;;20.30;99.90;;;;;;6140545;23;20421;-82
2021/09/17 13:35:42;;;;;;;3.53;1.20;;;20.10;99.90;;;;;;6140420;23;20476;-83
2021/09/17 13:38:13;;;;;;;3.70;1.00;;;20.10;99.90;;;;;;6139722;23;20390;-84
2021/09/17 13:40:41;;;;;;;2.27;0.90;;;20.10;99.90;;;;;;6144843;23;20409;-84
2021/09/17 13:43:08;;;;;;;1.47;0.90;;;20.20;99.90;;;;;;6145341;23;20457;-83
2021/09/17 13:45:36;;;;;;;4.43;0.90;;;20.10;99.90;;;;;;6141512;23;20488;-84
2021/09/17 13:48:04;;;;;;;4.17;0.90;;;20.20;99.90;;;;;;6139967;23;20404;-82
2021/09/17 13:50:31;;;;;;;3.07;1.10;;;20.10;99.90;;;;;;6141324;23;20426;-83
2021/09/17 13:53:01;;;;;;;3.30;1.03;;;20.10;99.90;;;;;;6142668;23;20482;-84
2021/09/17 13:55:32;;;;;;;5.30;1.30;;;20.00;99.90;;;;;;6140043;23;20425;-81
2021/09/17 13:58:00;;;;;;;2.53;1.20;;;20.00;99.90;;;;;;6139973;23;20423;-83
2021/09/17 14:00:29;;;;;;;2.47;1.57;;;19.80;99.90;;;;;;6139346;23;20500;-84
2021/09/17 14:02:56;;;;;;;2.77;1.50;;;19.80;99.90;;;;;;6138441;23;20447;-84
2021/09/17 14:05:24;;;;;;;1.73;1.13;;;19.80;99.90;;;;;;6139208;23;20449;-83
2021/09/17 14:07:51;;;;;;;4.53;2.00;;;19.90;99.90;;;;;;6140492;23;20464;-83
2021/09/17 14:10:18;;;;;;;2.30;1.27;;;19.80;99.90;;;;;;6140465;23;20473;-83
2021/09/17 14:12:47;;;;;;;4.47;1.80;;;19.80;99.90;;;;;;6138293;23;20560;-84
2021/09/17 14:15:14;;;;;;;3.20;1.47;;;19.80;99.90;;;;;;6139924;23;20460;-83
2021/09/17 14:17:41;;;;;;;2.13;0.90;;;19.90;99.90;;;;;;6139307;23;20484;-83
2021/09/17 14:20:10;;;;;;;3.40;1.50;;;20.00;99.90;;;;;;6139538;23;20408;-83